sensor_id;sensor_type;location;lat;lon;timestamp;P1;durP1;ratioP1;P2;durP2;ratioP2
8361;SDS011;4218;48.326;14.304;2024-02-26T00:01:50;14.73;;;13.90;;
8361;SDS011;4218;48.326;14.304;2024-02-26T00:04:16;14.80;;;14.03;;
8361;SDS011;4218;48.326;14.304;2024-02-26T00:06:42;16.97;;;15.90;;
8361;SDS011;4218;48.326;14.304;2024-02-26T00:09:08;17.80;;;16.90;;
8361;SDS011;4218;48.326;14.304;2024-02-26T00:11:37;12.67;;;11.80;;
8361;SDS011;4218;48.326;14.304;2024-02-26T00:14:03;14.33;;;13.43;;
8361;SDS011;4218;48.326;14.304;2024-02-26T00:16:28;13.37;;;12.67;;
8361;SDS011;4218;48.326;14.304;2024-02-26T00:18:54;16.47;;;15.57;;
8361;SDS011;4218;48.326;14.304;2024-02-26T00:21:19;17.80;;;16.80;;
8361;SDS011;4218;48.326;14.304;2024-02-26T00:23:45;12.20;;;11.40;;
8361;SDS011;4218;48.326;14.304;2024-02-26T00:26:10;12.00;;;11.20;;
8361;SDS011;4218;48.326;14.304;2024-02-26T00:28:36;11.50;;;10.90;;
8361;SDS011;4218;48.326;14.304;2024-02-26T00:31:02;12.80;;;12.10;;
8361;SDS011;4218;48.326;14.304;2024-02-26T00:33:28;11.73;;;10.93;;
8361;SDS011;4218;48.326;14.304;2024-02-26T00:35:53;11.20;;;10.40;;
8361;SDS011;4218;48.326;14.304;2024-02-26T00:38:19;13.73;;;12.50;;
8361;SDS011;4218;48.326;14.304;2024-02-26T00:40:44;11.57;;;10.97;;
8361;SDS011;4218;48.326;14.304;2024-02-26T00:43:10;11.53;;;10.93;;
8361;SDS011;4218;48.326;14.304;2024-02-26T00:45:35;11.73;;;10.93;;
8361;SDS011;4218;48.326;14.304;2024-02-26T00:48:01;11.60;;;10.90;;
8361;SDS011;4218;48.326;14.304;2024-02-26T00:50:29;11.53;;;10.73;;
8361;SDS011;4218;48.326;14.304;2024-02-26T00:52:56;11.40;;;10.80;;
8361;SDS011;4218;48.326;14.304;2024-02-26T00:55:21;11.70;;;10.80;;
8361;SDS011;4218;48.326;14.304;2024-02-26T00:57:47;11.93;;;10.83;;
8361;SDS011;4218;48.326;14.304;2024-02-26T01:00:12;12.57;;;11.67;;
8361;SDS011;4218;48.326;14.304;2024-02-26T01:02:38;11.97;;;11.07;;
8361;SDS011;4218;48.326;14.304;2024-02-26T01:05:04;12.17;;;11.07;;
8361;SDS011;4218;48.326;14.304;2024-02-26T01:07:31;12.53;;;11.47;;
8361;SDS011;4218;48.326;14.304;2024-02-26T01:10:00;13.50;;;12.80;;
8361;SDS011;4218;48.326;14.304;2024-02-26T01:12:30;11.60;;;11.00;;
8361;SDS011;4218;48.326;14.304;2024-02-26T01:14:56;11.37;;;10.77;;
8361;SDS011;4218;48.326;14.304;2024-02-26T01:17:21;11.07;;;10.17;;
8361;SDS011;4218;48.326;14.304;2024-02-26T01:19:46;13.40;;;12.50;;
8361;SDS011;4218;48.326;14.304;2024-02-26T01:22:12;11.23;;;10.53;;
8361;SDS011;4218;48.326;14.304;2024-02-26T01:24:37;12.13;;;11.40;;
8361;SDS011;4218;48.326;14.304;2024-02-26T01:27:03;11.10;;;10.37;;
8361;SDS011;4218;48.326;14.304;2024-02-26T01:29:28;10.87;;;10.27;;
8361;SDS011;4218;48.326;14.304;2024-02-26T01:31:54;11.17;;;10.27;;
8361;SDS011;4218;48.326;14.304;2024-02-26T01:34:20;9.63;;;9.13;;
8361;SDS011;4218;48.326;14.304;2024-02-26T01:36:45;10.07;;;9.57;;
8361;SDS011;4218;48.326;14.304;2024-02-26T01:39:10;10.33;;;9.63;;
8361;SDS011;4218;48.326;14.304;2024-02-26T01:41:37;10.33;;;9.80;;
8361;SDS011;4218;48.326;14.304;2024-02-26T01:44:03;9.73;;;9.23;;
8361;SDS011;4218;48.326;14.304;2024-02-26T01:46:29;10.97;;;10.37;;
8361;SDS011;4218;48.326;14.304;2024-02-26T01:48:56;9.50;;;9.00;;
8361;SDS011;4218;48.326;14.304;2024-02-26T01:51:21;10.63;;;10.03;;
8361;SDS011;4218;48.326;14.304;2024-02-26T01:53:47;10.93;;;10.03;;
8361;SDS011;4218;48.326;14.304;2024-02-26T01:56:13;11.10;;;10.40;;
8361;SDS011;4218;48.326;14.304;2024-02-26T01:58:40;10.30;;;9.77;;
8361;SDS011;4218;48.326;14.304;2024-02-26T02:01:06;11.00;;;10.40;;
8361;SDS011;4218;48.326;14.304;2024-02-26T02:03:32;10.60;;;10.00;;
8361;SDS011;4218;48.326;14.304;2024-02-26T02:05:58;9.90;;;9.33;;
8361;SDS011;4218;48.326;14.304;2024-02-26T02:08:23;12.03;;;11.43;;
8361;SDS011;4218;48.326;14.304;2024-02-26T02:10:49;11.53;;;10.73;;
8361;SDS011;4218;48.326;14.304;2024-02-26T02:13:15;11.10;;;10.47;;
8361;SDS011;4218;48.326;14.304;2024-02-26T02:15:41;11.80;;;11.10;;
8361;SDS011;4218;48.326;14.304;2024-02-26T02:18:06;9.63;;;9.03;;
8361;SDS011;4218;48.326;14.304;2024-02-26T02:20:32;11.47;;;10.83;;
8361;SDS011;4218;48.326;14.304;2024-02-26T02:23:02;11.37;;;10.70;;
8361;SDS011;4218;48.326;14.304;2024-02-26T02:25:27;10.73;;;10.00;;
8361;SDS011;4218;48.326;14.304;2024-02-26T02:27:53;12.63;;;11.83;;
8361;SDS011;4218;48.326;14.304;2024-02-26T02:30:24;9.93;;;9.33;;
8361;SDS011;4218;48.326;14.304;2024-02-26T02:32:51;10.40;;;9.80;;
8361;SDS011;4218;48.326;14.304;2024-02-26T02:35:17;10.50;;;9.77;;
8361;SDS011;4218;48.326;14.304;2024-02-26T02:37:42;11.63;;;10.93;;
8361;SDS011;4218;48.326;14.304;2024-02-26T02:40:08;12.13;;;11.40;;
8361;SDS011;4218;48.326;14.304;2024-02-26T02:42:33;12.20;;;11.47;;
8361;SDS011;4218;48.326;14.304;2024-02-26T02:44:58;12.03;;;11.43;;
8361;SDS011;4218;48.326;14.304;2024-02-26T02:47:24;11.07;;;10.47;;
8361;SDS011;4218;48.326;14.304;2024-02-26T02:49:49;10.10;;;9.60;;
8361;SDS011;4218;48.326;14.304;2024-02-26T02:52:15;9.70;;;9.10;;
8361;SDS011;4218;48.326;14.304;2024-02-26T02:54:40;9.50;;;9.00;;
8361;SDS011;4218;48.326;14.304;2024-02-26T02:57:07;10.13;;;9.63;;
8361;SDS011;4218;48.326;14.304;2024-02-26T02:59:33;14.17;;;13.47;;
8361;SDS011;4218;48.326;14.304;2024-02-26T03:01:58;21.53;;;20.50;;
8361;SDS011;4218;48.326;14.304;2024-02-26T03:04:27;13.17;;;12.47;;
8361;SDS011;4218;48.326;14.304;2024-02-26T03:06:54;11.63;;;10.90;;
8361;SDS011;4218;48.326;14.304;2024-02-26T03:09:19;15.43;;;14.73;;
8361;SDS011;4218;48.326;14.304;2024-02-26T03:11:45;13.03;;;12.37;;
8361;SDS011;4218;48.326;14.304;2024-02-26T03:14:10;17.70;;;16.90;;
8361;SDS011;4218;48.326;14.304;2024-02-26T03:16:35;11.63;;;11.07;;
8361;SDS011;4218;48.326;14.304;2024-02-26T03:19:01;13.17;;;12.57;;
8361;SDS011;4218;48.326;14.304;2024-02-26T03:21:28;13.47;;;12.87;;
8361;SDS011;4218;48.326;14.304;2024-02-26T03:23:53;11.37;;;10.77;;
8361;SDS011;4218;48.326;14.304;2024-02-26T03:26:19;16.93;;;16.13;;
8361;SDS011;4218;48.326;14.304;2024-02-26T03:28:44;10.70;;;10.20;;
8361;SDS011;4218;48.326;14.304;2024-02-26T03:31:10;11.60;;;11.00;;
8361;SDS011;4218;48.326;14.304;2024-02-26T03:33:35;10.97;;;10.23;;
8361;SDS011;4218;48.326;14.304;2024-02-26T03:36:01;11.40;;;10.87;;
8361;SDS011;4218;48.326;14.304;2024-02-26T03:38:28;12.93;;;12.13;;
8361;SDS011;4218;48.326;14.304;2024-02-26T03:40:54;13.90;;;13.10;;
8361;SDS011;4218;48.326;14.304;2024-02-26T03:43:19;15.07;;;14.30;;
8361;SDS011;4218;48.326;14.304;2024-02-26T03:45:44;12.13;;;11.50;;
8361;SDS011;4218;48.326;14.304;2024-02-26T03:48:10;16.70;;;15.90;;
8361;SDS011;4218;48.326;14.304;2024-02-26T03:50:35;17.60;;;16.83;;
8361;SDS011;4218;48.326;14.304;2024-02-26T03:53:00;15.50;;;14.73;;
8361;SDS011;4218;48.326;14.304;2024-02-26T03:55:26;12.37;;;11.57;;
8361;SDS011;4218;48.326;14.304;2024-02-26T03:57:51;12.10;;;11.53;;
8361;SDS011;4218;48.326;14.304;2024-02-26T04:00:17;10.90;;;10.23;;
8361;SDS011;4218;48.326;14.304;2024-02-26T04:02:43;11.50;;;10.87;;
8361;SDS011;4218;48.326;14.304;2024-02-26T04:05:11;14.10;;;13.40;;
8361;SDS011;4218;48.326;14.304;2024-02-26T04:07:38;11.47;;;10.87;;
8361;SDS011;4218;48.326;14.304;2024-02-26T04:10:07;11.10;;;10.50;;
8361;SDS011;4218;48.326;14.304;2024-02-26T04:12:34;16.50;;;15.63;;
8361;SDS011;4218;48.326;14.304;2024-02-26T04:14:59;24.63;;;23.43;;
8361;SDS011;4218;48.326;14.304;2024-02-26T04:17:25;16.90;;;15.30;;
8361;SDS011;4218;48.326;14.304;2024-02-26T04:19:50;13.90;;;13.30;;
8361;SDS011;4218;48.326;14.304;2024-02-26T04:22:16;23.40;;;22.10;;
8361;SDS011;4218;48.326;14.304;2024-02-26T04:24:41;14.70;;;14.00;;
8361;SDS011;4218;48.326;14.304;2024-02-26T04:27:06;17.23;;;16.30;;
8361;SDS011;4218;48.326;14.304;2024-02-26T04:29:32;15.23;;;14.43;;
8361;SDS011;4218;48.326;14.304;2024-02-26T04:31:57;18.23;;;17.37;;
8361;SDS011;4218;48.326;14.304;2024-02-26T04:34:22;15.90;;;15.10;;
8361;SDS011;4218;48.326;14.304;2024-02-26T04:36:48;11.10;;;10.50;;
8361;SDS011;4218;48.326;14.304;2024-02-26T04:39:13;11.80;;;11.00;;
8361;SDS011;4218;48.326;14.304;2024-02-26T04:41:39;12.67;;;12.07;;
8361;SDS011;4218;48.326;14.304;2024-02-26T04:44:05;12.20;;;11.60;;
8361;SDS011;4218;48.326;14.304;2024-02-26T04:46:30;14.90;;;14.00;;
8361;SDS011;4218;48.326;14.304;2024-02-26T04:48:56;14.33;;;13.63;;
8361;SDS011;4218;48.326;14.304;2024-02-26T04:51:21;13.53;;;12.83;;
8361;SDS011;4218;48.326;14.304;2024-02-26T04:53:46;12.70;;;11.90;;
8361;SDS011;4218;48.326;14.304;2024-02-26T04:56:12;22.33;;;20.97;;
8361;SDS011;4218;48.326;14.304;2024-02-26T04:58:37;18.47;;;16.93;;
8361;SDS011;4218;48.326;14.304;2024-02-26T05:01:03;18.57;;;17.53;;
8361;SDS011;4218;48.326;14.304;2024-02-26T05:03:28;20.17;;;19.00;;
8361;SDS011;4218;48.326;14.304;2024-02-26T05:05:54;18.57;;;17.57;;
8361;SDS011;4218;48.326;14.304;2024-02-26T05:08:20;20.20;;;19.10;;
8361;SDS011;4218;48.326;14.304;2024-02-26T05:10:45;17.73;;;16.77;;
8361;SDS011;4218;48.326;14.304;2024-02-26T05:13:10;18.23;;;17.10;;
8361;SDS011;4218;48.326;14.304;2024-02-26T05:15:36;12.30;;;11.60;;
8361;SDS011;4218;48.326;14.304;2024-02-26T05:18:02;20.17;;;19.00;;
8361;SDS011;4218;48.326;14.304;2024-02-26T05:20:27;30.50;;;28.93;;
8361;SDS011;4218;48.326;14.304;2024-02-26T05:22:53;12.53;;;11.93;;
8361;SDS011;4218;48.326;14.304;2024-02-26T05:25:19;15.77;;;14.90;;
8361;SDS011;4218;48.326;14.304;2024-02-26T05:27:44;24.87;;;23.57;;
8361;SDS011;4218;48.326;14.304;2024-02-26T05:30:10;17.10;;;16.20;;
8361;SDS011;4218;48.326;14.304;2024-02-26T05:32:36;15.57;;;14.77;;
8361;SDS011;4218;48.326;14.304;2024-02-26T05:35:01;28.83;;;27.43;;
8361;SDS011;4218;48.326;14.304;2024-02-26T05:37:30;24.10;;;22.87;;
8361;SDS011;4218;48.326;14.304;2024-02-26T05:39:55;31.93;;;30.37;;
8361;SDS011;4218;48.326;14.304;2024-02-26T05:42:21;37.33;;;35.43;;
8361;SDS011;4218;48.326;14.304;2024-02-26T05:44:46;21.43;;;20.33;;
8361;SDS011;4218;48.326;14.304;2024-02-26T05:47:11;27.43;;;25.93;;
8361;SDS011;4218;48.326;14.304;2024-02-26T05:49:37;25.10;;;23.63;;
8361;SDS011;4218;48.326;14.304;2024-02-26T05:52:02;24.43;;;23.17;;
8361;SDS011;4218;48.326;14.304;2024-02-26T05:54:28;13.43;;;12.67;;
8361;SDS011;4218;48.326;14.304;2024-02-26T05:56:53;13.23;;;12.53;;
8361;SDS011;4218;48.326;14.304;2024-02-26T05:59:18;14.43;;;13.43;;
8361;SDS011;4218;48.326;14.304;2024-02-26T06:01:44;13.73;;;12.80;;
8361;SDS011;4218;48.326;14.304;2024-02-26T06:04:09;13.90;;;13.17;;
8361;SDS011;4218;48.326;14.304;2024-02-26T06:06:34;13.73;;;12.93;;
8361;SDS011;4218;48.326;14.304;2024-02-26T06:08:59;15.80;;;14.90;;
8361;SDS011;4218;48.326;14.304;2024-02-26T06:11:25;16.33;;;15.23;;
8361;SDS011;4218;48.326;14.304;2024-02-26T06:13:50;16.07;;;14.87;;
8361;SDS011;4218;48.326;14.304;2024-02-26T06:16:17;20.87;;;19.00;;
8361;SDS011;4218;48.326;14.304;2024-02-26T06:18:42;21.47;;;19.47;;
8361;SDS011;4218;48.326;14.304;2024-02-26T06:21:11;20.97;;;18.97;;
8361;SDS011;4218;48.326;14.304;2024-02-26T06:23:37;17.73;;;16.33;;
8361;SDS011;4218;48.326;14.304;2024-02-26T06:26:05;19.77;;;18.17;;
8361;SDS011;4218;48.326;14.304;2024-02-26T06:28:31;20.67;;;18.93;;
8361;SDS011;4218;48.326;14.304;2024-02-26T06:30:59;21.53;;;19.93;;
8361;SDS011;4218;48.326;14.304;2024-02-26T06:33:25;25.03;;;23.23;;
8361;SDS011;4218;48.326;14.304;2024-02-26T06:35:50;23.97;;;21.97;;
8361;SDS011;4218;48.326;14.304;2024-02-26T06:38:16;20.70;;;19.00;;
8361;SDS011;4218;48.326;14.304;2024-02-26T06:40:42;20.57;;;18.90;;
8361;SDS011;4218;48.326;14.304;2024-02-26T06:43:09;27.23;;;25.13;;
8361;SDS011;4218;48.326;14.304;2024-02-26T06:45:34;35.93;;;32.97;;
8361;SDS011;4218;48.326;14.304;2024-02-26T06:47:59;28.27;;;25.90;;
8361;SDS011;4218;48.326;14.304;2024-02-26T06:50:25;34.77;;;32.47;;
8361;SDS011;4218;48.326;14.304;2024-02-26T06:52:50;38.30;;;19.73;;
8361;SDS011;4218;48.326;14.304;2024-02-26T06:55:15;30.60;;;17.90;;
8361;SDS011;4218;48.326;14.304;2024-02-26T06:57:41;31.83;;;20.40;;
8361;SDS011;4218;48.326;14.304;2024-02-26T07:00:07;40.27;;;30.17;;
8361;SDS011;4218;48.326;14.304;2024-02-26T07:02:32;34.40;;;23.97;;
8361;SDS011;4218;48.326;14.304;2024-02-26T07:04:58;32.37;;;27.43;;
8361;SDS011;4218;48.326;14.304;2024-02-26T07:07:24;36.60;;;23.63;;
8361;SDS011;4218;48.326;14.304;2024-02-26T07:09:49;30.20;;;23.30;;
8361;SDS011;4218;48.326;14.304;2024-02-26T07:12:15;45.33;;;23.83;;
8361;SDS011;4218;48.326;14.304;2024-02-26T07:14:41;22.17;;;19.37;;
8361;SDS011;4218;48.326;14.304;2024-02-26T07:17:15;22.87;;;20.53;;
8361;SDS011;4218;48.326;14.304;2024-02-26T07:19:41;64.97;;;29.57;;
8361;SDS011;4218;48.326;14.304;2024-02-26T07:22:08;28.83;;;25.93;;
8361;SDS011;4218;48.326;14.304;2024-02-26T07:24:35;26.63;;;22.33;;
8361;SDS011;4218;48.326;14.304;2024-02-26T07:27:00;27.30;;;21.53;;
8361;SDS011;4218;48.326;14.304;2024-02-26T07:29:30;22.50;;;20.50;;
8361;SDS011;4218;48.326;14.304;2024-02-26T20:53:40;15.27;;;14.27;;
8361;SDS011;4218;48.326;14.304;2024-02-26T20:56:21;13.37;;;12.37;;
8361;SDS011;4218;48.326;14.304;2024-02-26T20:58:51;13.00;;;12.00;;
8361;SDS011;4218;48.326;14.304;2024-02-26T21:01:22;12.40;;;11.43;;
8361;SDS011;4218;48.326;14.304;2024-02-26T21:04:02;13.37;;;12.40;;
8361;SDS011;4218;48.326;14.304;2024-02-26T21:06:49;13.60;;;12.50;;
8361;SDS011;4218;48.326;14.304;2024-02-26T21:09:54;14.10;;;13.10;;
8361;SDS011;4218;48.326;14.304;2024-02-26T21:12:24;14.57;;;13.67;;
8361;SDS011;4218;48.326;14.304;2024-02-26T21:14:52;14.17;;;13.37;;
8361;SDS011;4218;48.326;14.304;2024-02-26T21:17:50;15.07;;;14.07;;
8361;SDS011;4218;48.326;14.304;2024-02-26T21:20:38;13.97;;;13.07;;
8361;SDS011;4218;48.326;14.304;2024-02-26T21:23:03;13.47;;;12.57;;
8361;SDS011;4218;48.326;14.304;2024-02-26T21:25:47;14.10;;;13.20;;
8361;SDS011;4218;48.326;14.304;2024-02-26T21:28:41;12.67;;;11.97;;
8361;SDS011;4218;48.326;14.304;2024-02-26T21:31:28;13.27;;;12.47;;
8361;SDS011;4218;48.326;14.304;2024-02-26T21:34:13;12.87;;;11.87;;
8361;SDS011;4218;48.326;14.304;2024-02-26T21:36:41;12.70;;;11.90;;
8361;SDS011;4218;48.326;14.304;2024-02-26T21:39:14;14.87;;;13.47;;
8361;SDS011;4218;48.326;14.304;2024-02-26T21:41:40;13.37;;;12.17;;
8361;SDS011;4218;48.326;14.304;2024-02-26T21:44:10;13.47;;;12.67;;
8361;SDS011;4218;48.326;14.304;2024-02-26T21:47:01;13.90;;;12.90;;
8361;SDS011;4218;48.326;14.304;2024-02-26T21:49:28;16.67;;;15.37;;
8361;SDS011;4218;48.326;14.304;2024-02-26T21:51:57;18.97;;;17.77;;
8361;SDS011;4218;48.326;14.304;2024-02-26T21:54:31;16.77;;;15.77;;
8361;SDS011;4218;48.326;14.304;2024-02-26T21:56:58;13.80;;;12.83;;
8361;SDS011;4218;48.326;14.304;2024-02-26T21:59:26;19.73;;;18.43;;
8361;SDS011;4218;48.326;14.304;2024-02-26T22:01:52;15.17;;;14.17;;
8361;SDS011;4218;48.326;14.304;2024-02-26T22:04:19;15.63;;;14.73;;
8361;SDS011;4218;48.326;14.304;2024-02-26T22:06:55;15.67;;;14.67;;
8361;SDS011;4218;48.326;14.304;2024-02-26T22:09:23;17.03;;;16.03;;
8361;SDS011;4218;48.326;14.304;2024-02-26T22:14:59;18.03;;;16.67;;
8361;SDS011;4218;48.326;14.304;2024-02-26T22:17:25;16.03;;;15.03;;
8361;SDS011;4218;48.326;14.304;2024-02-26T22:19:56;17.10;;;16.10;;
8361;SDS011;4218;48.326;14.304;2024-02-26T22:22:22;18.23;;;17.13;;
8361;SDS011;4218;48.326;14.304;2024-02-26T22:24:56;15.27;;;14.37;;
8361;SDS011;4218;48.326;14.304;2024-02-26T22:27:22;15.20;;;14.30;;
8361;SDS011;4218;48.326;14.304;2024-02-26T22:29:49;16.90;;;15.80;;
8361;SDS011;4218;48.326;14.304;2024-02-26T22:32:19;15.63;;;14.27;;
8361;SDS011;4218;48.326;14.304;2024-02-26T22:35:04;18.60;;;17.13;;
8361;SDS011;4218;48.326;14.304;2024-02-26T22:37:34;24.83;;;22.13;;
8361;SDS011;4218;48.326;14.304;2024-02-26T22:40:16;16.67;;;15.63;;
8361;SDS011;4218;48.326;14.304;2024-02-26T22:42:47;17.40;;;16.33;;
8361;SDS011;4218;48.326;14.304;2024-02-26T22:45:20;17.57;;;16.57;;
8361;SDS011;4218;48.326;14.304;2024-02-26T22:47:46;16.30;;;15.30;;
8361;SDS011;4218;48.326;14.304;2024-02-26T22:50:13;15.83;;;14.73;;
8361;SDS011;4218;48.326;14.304;2024-02-26T22:52:38;15.70;;;14.50;;
8361;SDS011;4218;48.326;14.304;2024-02-26T22:55:07;15.40;;;14.50;;
8361;SDS011;4218;48.326;14.304;2024-02-26T22:57:37;14.03;;;13.13;;
8361;SDS011;4218;48.326;14.304;2024-02-26T23:00:03;14.27;;;13.20;;
8361;SDS011;4218;48.326;14.304;2024-02-26T23:02:54;13.73;;;12.80;;
8361;SDS011;4218;48.326;14.304;2024-02-26T23:05:41;16.67;;;15.47;;
8361;SDS011;4218;48.326;14.304;2024-02-26T23:08:09;18.50;;;17.20;;
8361;SDS011;4218;48.326;14.304;2024-02-26T23:10:38;15.90;;;14.50;;
8361;SDS011;4218;48.326;14.304;2024-02-26T23:13:11;15.40;;;14.20;;
8361;SDS011;4218;48.326;14.304;2024-02-26T23:15:41;14.47;;;13.13;;
8361;SDS011;4218;48.326;14.304;2024-02-26T23:18:07;14.73;;;13.70;;
8361;SDS011;4218;48.326;14.304;2024-02-26T23:20:39;14.50;;;13.40;;
8361;SDS011;4218;48.326;14.304;2024-02-26T23:23:05;13.57;;;12.67;;
8361;SDS011;4218;48.326;14.304;2024-02-26T23:25:33;17.47;;;16.27;;
8361;SDS011;4218;48.326;14.304;2024-02-26T23:28:28;15.47;;;14.37;;
8361;SDS011;4218;48.326;14.304;2024-02-26T23:30:56;18.03;;;16.83;;
8361;SDS011;4218;48.326;14.304;2024-02-26T23:33:22;15.53;;;14.60;;
8361;SDS011;4218;48.326;14.304;2024-02-26T23:35:47;16.13;;;15.10;;
8361;SDS011;4218;48.326;14.304;2024-02-26T23:38:13;16.40;;;15.40;;
8361;SDS011;4218;48.326;14.304;2024-02-26T23:40:46;18.83;;;17.47;;
8361;SDS011;4218;48.326;14.304;2024-02-26T23:43:21;14.97;;;14.07;;
8361;SDS011;4218;48.326;14.304;2024-02-26T23:45:47;16.47;;;15.27;;
8361;SDS011;4218;48.326;14.304;2024-02-26T23:48:16;17.27;;;16.17;;
8361;SDS011;4218;48.326;14.304;2024-02-26T23:50:46;22.73;;;21.57;;
8361;SDS011;4218;48.326;14.304;2024-02-26T23:53:12;20.23;;;19.03;;
8361;SDS011;4218;48.326;14.304;2024-02-26T23:55:40;18.83;;;17.73;;
8361;SDS011;4218;48.326;14.304;2024-02-26T23:58:11;19.40;;;18.40;;
